sensor_id;sensor_type;location;lat;lon;timestamp;P1;durP1;ratioP1;P2;durP2;ratioP2
5026;SDS011;2532;52.480;13.354;2023-03-01T00:02:06;24.07;;;13.53;;
5026;SDS011;2532;52.480;13.354;2023-03-01T00:04:33;25.03;;;15.13;;
5026;SDS011;2532;52.480;13.354;2023-03-01T00:07:01;30.00;;;13.60;;
5026;SDS011;2532;52.480;13.354;2023-03-01T00:09:29;22.00;;;13.13;;
5026;SDS011;2532;52.480;13.354;2023-03-01T00:11:56;27.37;;;14.23;;
5026;SDS011;2532;52.480;13.354;2023-03-01T00:14:23;25.13;;;14.00;;
5026;SDS011;2532;52.480;13.354;2023-03-01T00:16:50;25.57;;;14.60;;
5026;SDS011;2532;52.480;13.354;2023-03-01T00:19:18;33.87;;;15.50;;
5026;SDS011;2532;52.480;13.354;2023-03-01T00:21:46;27.90;;;14.17;;
5026;SDS011;2532;52.480;13.354;2023-03-01T00:24:14;35.97;;;14.60;;
5026;SDS011;2532;52.480;13.354;2023-03-01T00:26:45;26.93;;;15.47;;
5026;SDS011;2532;52.480;13.354;2023-03-01T00:29:12;32.27;;;17.30;;
5026;SDS011;2532;52.480;13.354;2023-03-01T00:31:39;30.73;;;14.70;;
5026;SDS011;2532;52.480;13.354;2023-03-01T00:34:06;25.87;;;13.60;;
5026;SDS011;2532;52.480;13.354;2023-03-01T00:36:33;25.73;;;14.27;;
5026;SDS011;2532;52.480;13.354;2023-03-01T00:39:02;28.07;;;14.33;;
5026;SDS011;2532;52.480;13.354;2023-03-01T00:41:30;24.23;;;14.10;;
5026;SDS011;2532;52.480;13.354;2023-03-01T00:44:00;32.47;;;15.30;;
5026;SDS011;2532;52.480;13.354;2023-03-01T00:46:27;28.90;;;15.63;;
5026;SDS011;2532;52.480;13.354;2023-03-01T00:48:55;35.27;;;14.80;;
5026;SDS011;2532;52.480;13.354;2023-03-01T00:51:23;21.23;;;13.40;;
5026;SDS011;2532;52.480;13.354;2023-03-01T00:53:51;30.63;;;15.30;;
5026;SDS011;2532;52.480;13.354;2023-03-01T00:56:19;23.70;;;13.43;;
5026;SDS011;2532;52.480;13.354;2023-03-01T00:58:46;31.57;;;14.97;;
5026;SDS011;2532;52.480;13.354;2023-03-01T01:01:15;31.13;;;14.03;;
5026;SDS011;2532;52.480;13.354;2023-03-01T01:03:45;28.30;;;14.67;;
5026;SDS011;2532;52.480;13.354;2023-03-01T01:06:13;24.13;;;14.47;;
5026;SDS011;2532;52.480;13.354;2023-03-01T01:08:41;23.93;;;14.13;;
5026;SDS011;2532;52.480;13.354;2023-03-01T01:11:09;28.70;;;13.87;;
5026;SDS011;2532;52.480;13.354;2023-03-01T01:13:36;26.53;;;15.07;;
5026;SDS011;2532;52.480;13.354;2023-03-01T01:16:03;28.77;;;15.07;;
5026;SDS011;2532;52.480;13.354;2023-03-01T01:21:05;24.90;;;14.70;;
5026;SDS011;2532;52.480;13.354;2023-03-01T01:23:33;26.70;;;14.47;;
5026;SDS011;2532;52.480;13.354;2023-03-01T01:26:04;29.47;;;15.77;;
5026;SDS011;2532;52.480;13.354;2023-03-01T01:28:32;28.03;;;15.10;;
5026;SDS011;2532;52.480;13.354;2023-03-01T01:30:59;29.20;;;14.17;;
5026;SDS011;2532;52.480;13.354;2023-03-01T01:33:26;25.80;;;13.93;;
5026;SDS011;2532;52.480;13.354;2023-03-01T01:35:55;26.77;;;13.80;;
5026;SDS011;2532;52.480;13.354;2023-03-01T01:38:22;27.20;;;14.17;;
5026;SDS011;2532;52.480;13.354;2023-03-01T01:40:49;24.50;;;14.77;;
5026;SDS011;2532;52.480;13.354;2023-03-01T01:43:19;21.83;;;13.07;;
5026;SDS011;2532;52.480;13.354;2023-03-01T01:45:50;27.80;;;14.37;;
5026;SDS011;2532;52.480;13.354;2023-03-01T01:48:19;30.10;;;14.30;;
5026;SDS011;2532;52.480;13.354;2023-03-01T01:50:50;29.83;;;15.70;;
5026;SDS011;2532;52.480;13.354;2023-03-01T01:53:23;22.00;;;12.53;;
5026;SDS011;2532;52.480;13.354;2023-03-01T01:55:51;24.33;;;14.13;;
5026;SDS011;2532;52.480;13.354;2023-03-01T01:58:25;29.13;;;13.97;;
5026;SDS011;2532;52.480;13.354;2023-03-01T02:00:55;27.27;;;15.40;;
5026;SDS011;2532;52.480;13.354;2023-03-01T02:03:23;29.70;;;13.63;;
5026;SDS011;2532;52.480;13.354;2023-03-01T02:05:57;21.80;;;13.00;;
5026;SDS011;2532;52.480;13.354;2023-03-01T02:08:31;32.70;;;13.73;;
5026;SDS011;2532;52.480;13.354;2023-03-01T02:11:02;28.23;;;15.50;;
5026;SDS011;2532;52.480;13.354;2023-03-01T02:13:30;21.87;;;13.30;;
5026;SDS011;2532;52.480;13.354;2023-03-01T02:15:57;25.17;;;13.40;;
5026;SDS011;2532;52.480;13.354;2023-03-01T02:18:25;29.87;;;14.27;;
5026;SDS011;2532;52.480;13.354;2023-03-01T02:20:58;23.47;;;13.40;;
5026;SDS011;2532;52.480;13.354;2023-03-01T02:23:33;25.63;;;13.60;;
5026;SDS011;2532;52.480;13.354;2023-03-01T02:26:02;25.90;;;12.43;;
5026;SDS011;2532;52.480;13.354;2023-03-01T02:28:34;21.63;;;13.50;;
5026;SDS011;2532;52.480;13.354;2023-03-01T02:31:03;22.10;;;11.60;;
5026;SDS011;2532;52.480;13.354;2023-03-01T02:33:50;24.77;;;14.10;;
5026;SDS011;2532;52.480;13.354;2023-03-01T02:36:20;27.93;;;12.50;;
5026;SDS011;2532;52.480;13.354;2023-03-01T02:38:51;26.73;;;13.60;;
5026;SDS011;2532;52.480;13.354;2023-03-01T02:41:21;24.03;;;13.33;;
5026;SDS011;2532;52.480;13.354;2023-03-01T02:43:51;27.53;;;13.17;;
5026;SDS011;2532;52.480;13.354;2023-03-01T02:46:19;28.10;;;13.50;;
5026;SDS011;2532;52.480;13.354;2023-03-01T02:48:49;44.50;;;23.27;;
5026;SDS011;2532;52.480;13.354;2023-03-01T02:51:22;30.03;;;14.77;;
5026;SDS011;2532;52.480;13.354;2023-03-01T02:53:58;23.90;;;13.87;;
5026;SDS011;2532;52.480;13.354;2023-03-01T02:56:33;23.67;;;13.40;;
5026;SDS011;2532;52.480;13.354;2023-03-01T02:59:02;27.13;;;14.00;;
5026;SDS011;2532;52.480;13.354;2023-03-01T03:01:30;23.23;;;12.40;;
5026;SDS011;2532;52.480;13.354;2023-03-01T03:04:03;24.50;;;13.90;;
5026;SDS011;2532;52.480;13.354;2023-03-01T03:06:30;24.00;;;13.40;;
5026;SDS011;2532;52.480;13.354;2023-03-01T03:08:57;25.37;;;13.20;;
5026;SDS011;2532;52.480;13.354;2023-03-01T03:11:24;29.40;;;13.83;;
5026;SDS011;2532;52.480;13.354;2023-03-01T03:13:52;28.67;;;14.73;;
5026;SDS011;2532;52.480;13.354;2023-03-01T03:16:20;32.93;;;14.87;;
5026;SDS011;2532;52.480;13.354;2023-03-01T03:18:48;22.03;;;13.70;;
5026;SDS011;2532;52.480;13.354;2023-03-01T03:21:15;21.53;;;13.07;;
5026;SDS011;2532;52.480;13.354;2023-03-01T03:23:42;21.37;;;11.40;;
5026;SDS011;2532;52.480;13.354;2023-03-01T03:26:09;25.87;;;14.10;;
5026;SDS011;2532;52.480;13.354;2023-03-01T03:28:38;24.63;;;14.57;;
5026;SDS011;2532;52.480;13.354;2023-03-01T03:31:06;23.67;;;14.30;;
5026;SDS011;2532;52.480;13.354;2023-03-01T03:33:35;24.60;;;12.60;;
5026;SDS011;2532;52.480;13.354;2023-03-01T03:36:02;27.83;;;14.20;;
5026;SDS011;2532;52.480;13.354;2023-03-01T03:38:30;23.83;;;14.70;;
5026;SDS011;2532;52.480;13.354;2023-03-01T03:40:59;25.07;;;13.23;;
5026;SDS011;2532;52.480;13.354;2023-03-01T03:43:28;28.13;;;13.93;;
5026;SDS011;2532;52.480;13.354;2023-03-01T03:45:56;27.27;;;14.63;;
5026;SDS011;2532;52.480;13.354;2023-03-01T03:48:23;25.83;;;14.33;;
5026;SDS011;2532;52.480;13.354;2023-03-01T03:50:53;23.17;;;14.40;;
5026;SDS011;2532;52.480;13.354;2023-03-01T03:53:22;22.10;;;13.23;;
5026;SDS011;2532;52.480;13.354;2023-03-01T03:55:51;25.83;;;14.13;;
5026;SDS011;2532;52.480;13.354;2023-03-01T03:58:19;45.73;;;15.77;;
5026;SDS011;2532;52.480;13.354;2023-03-01T04:00:48;24.83;;;14.03;;
5026;SDS011;2532;52.480;13.354;2023-03-01T04:03:16;24.13;;;14.00;;
5026;SDS011;2532;52.480;13.354;2023-03-01T04:05:45;27.50;;;14.40;;
5026;SDS011;2532;52.480;13.354;2023-03-01T04:08:14;25.30;;;14.10;;
5026;SDS011;2532;52.480;13.354;2023-03-01T04:10:41;26.17;;;13.97;;
5026;SDS011;2532;52.480;13.354;2023-03-01T04:13:10;24.30;;;13.10;;
5026;SDS011;2532;52.480;13.354;2023-03-01T04:15:39;25.43;;;14.20;;
5026;SDS011;2532;52.480;13.354;2023-03-01T04:18:08;23.50;;;13.10;;
5026;SDS011;2532;52.480;13.354;2023-03-01T04:20:37;23.07;;;14.60;;
5026;SDS011;2532;52.480;13.354;2023-03-01T04:23:05;26.30;;;14.33;;
5026;SDS011;2532;52.480;13.354;2023-03-01T04:25:40;28.50;;;13.63;;
5026;SDS011;2532;52.480;13.354;2023-03-01T04:28:08;26.07;;;14.50;;
5026;SDS011;2532;52.480;13.354;2023-03-01T04:30:36;30.90;;;14.80;;
5026;SDS011;2532;52.480;13.354;2023-03-01T04:33:05;22.87;;;13.60;;
5026;SDS011;2532;52.480;13.354;2023-03-01T04:35:32;23.60;;;12.73;;
5026;SDS011;2532;52.480;13.354;2023-03-01T04:38:00;23.27;;;13.43;;
5026;SDS011;2532;52.480;13.354;2023-03-01T04:40:27;25.90;;;14.90;;
5026;SDS011;2532;52.480;13.354;2023-03-01T04:42:55;23.33;;;12.17;;
5026;SDS011;2532;52.480;13.354;2023-03-01T04:45:23;22.77;;;12.93;;
5026;SDS011;2532;52.480;13.354;2023-03-01T04:47:50;25.70;;;14.27;;
5026;SDS011;2532;52.480;13.354;2023-03-01T04:50:17;24.23;;;13.50;;
5026;SDS011;2532;52.480;13.354;2023-03-01T04:52:47;28.77;;;14.77;;
5026;SDS011;2532;52.480;13.354;2023-03-01T04:55:14;25.00;;;14.33;;
5026;SDS011;2532;52.480;13.354;2023-03-01T04:57:41;24.07;;;14.80;;
5026;SDS011;2532;52.480;13.354;2023-03-01T05:00:11;26.03;;;15.30;;
5026;SDS011;2532;52.480;13.354;2023-03-01T05:02:49;21.53;;;13.67;;
5026;SDS011;2532;52.480;13.354;2023-03-01T05:05:22;28.47;;;15.43;;
5026;SDS011;2532;52.480;13.354;2023-03-01T05:07:52;25.33;;;15.37;;
5026;SDS011;2532;52.480;13.354;2023-03-01T05:10:20;28.80;;;15.47;;
5026;SDS011;2532;52.480;13.354;2023-03-01T05:12:47;26.77;;;15.03;;
5026;SDS011;2532;52.480;13.354;2023-03-01T05:15:15;25.63;;;15.10;;
5026;SDS011;2532;52.480;13.354;2023-03-01T05:17:42;26.00;;;14.33;;
5026;SDS011;2532;52.480;13.354;2023-03-01T05:20:10;28.70;;;14.80;;
5026;SDS011;2532;52.480;13.354;2023-03-01T05:22:37;27.17;;;14.40;;
5026;SDS011;2532;52.480;13.354;2023-03-01T05:25:04;24.80;;;13.40;;
5026;SDS011;2532;52.480;13.354;2023-03-01T05:27:33;24.57;;;14.33;;
5026;SDS011;2532;52.480;13.354;2023-03-01T05:30:00;31.93;;;15.50;;
5026;SDS011;2532;52.480;13.354;2023-03-01T05:32:39;26.13;;;13.77;;
5026;SDS011;2532;52.480;13.354;2023-03-01T05:35:08;32.13;;;16.13;;
5026;SDS011;2532;52.480;13.354;2023-03-01T05:37:38;30.00;;;15.80;;
5026;SDS011;2532;52.480;13.354;2023-03-01T05:40:07;29.40;;;15.30;;
5026;SDS011;2532;52.480;13.354;2023-03-01T05:42:41;30.53;;;14.70;;
5026;SDS011;2532;52.480;13.354;2023-03-01T05:45:12;34.83;;;18.07;;
5026;SDS011;2532;52.480;13.354;2023-03-01T05:47:41;27.73;;;15.90;;
5026;SDS011;2532;52.480;13.354;2023-03-01T05:50:11;35.20;;;19.60;;
5026;SDS011;2532;52.480;13.354;2023-03-01T05:52:39;25.73;;;14.33;;
5026;SDS011;2532;52.480;13.354;2023-03-01T05:55:06;34.00;;;19.50;;
5026;SDS011;2532;52.480;13.354;2023-03-01T05:57:34;30.47;;;16.67;;
5026;SDS011;2532;52.480;13.354;2023-03-01T06:00:01;29.83;;;18.70;;
5026;SDS011;2532;52.480;13.354;2023-03-01T06:02:28;32.83;;;19.87;;
5026;SDS011;2532;52.480;13.354;2023-03-01T06:04:56;34.93;;;23.27;;
5026;SDS011;2532;52.480;13.354;2023-03-01T06:07:23;30.90;;;16.93;;
5026;SDS011;2532;52.480;13.354;2023-03-01T06:09:50;29.00;;;18.27;;
5026;SDS011;2532;52.480;13.354;2023-03-01T06:12:17;30.43;;;16.90;;
5026;SDS011;2532;52.480;13.354;2023-03-01T06:14:44;29.73;;;15.87;;
5026;SDS011;2532;52.480;13.354;2023-03-01T06:17:12;30.30;;;16.50;;
5026;SDS011;2532;52.480;13.354;2023-03-01T06:19:39;34.73;;;19.30;;
5026;SDS011;2532;52.480;13.354;2023-03-01T06:22:08;35.30;;;18.23;;
5026;SDS011;2532;52.480;13.354;2023-03-01T06:24:34;36.90;;;18.13;;
5026;SDS011;2532;52.480;13.354;2023-03-01T06:27:01;28.83;;;17.90;;
5026;SDS011;2532;52.480;13.354;2023-03-01T06:29:29;33.17;;;17.47;;
5026;SDS011;2532;52.480;13.354;2023-03-01T06:31:56;29.53;;;17.17;;
5026;SDS011;2532;52.480;13.354;2023-03-01T06:34:23;35.33;;;18.00;;
5026;SDS011;2532;52.480;13.354;2023-03-01T06:36:52;33.90;;;17.23;;
5026;SDS011;2532;52.480;13.354;2023-03-01T06:39:21;27.50;;;16.23;;
5026;SDS011;2532;52.480;13.354;2023-03-01T06:41:48;31.23;;;17.77;;
5026;SDS011;2532;52.480;13.354;2023-03-01T06:44:15;29.07;;;17.17;;
5026;SDS011;2532;52.480;13.354;2023-03-01T06:46:42;34.93;;;17.00;;
5026;SDS011;2532;52.480;13.354;2023-03-01T06:49:08;37.47;;;18.47;;
5026;SDS011;2532;52.480;13.354;2023-03-01T06:51:37;34.27;;;17.67;;
5026;SDS011;2532;52.480;13.354;2023-03-01T06:54:04;29.07;;;15.97;;
5026;SDS011;2532;52.480;13.354;2023-03-01T06:56:32;37.27;;;16.50;;
5026;SDS011;2532;52.480;13.354;2023-03-01T06:58:59;31.20;;;17.03;;
5026;SDS011;2532;52.480;13.354;2023-03-01T07:01:27;33.10;;;16.37;;
5026;SDS011;2532;52.480;13.354;2023-03-01T07:03:54;35.33;;;17.60;;
5026;SDS011;2532;52.480;13.354;2023-03-01T07:06:22;25.73;;;15.27;;
5026;SDS011;2532;52.480;13.354;2023-03-01T07:08:49;29.30;;;15.70;;
5026;SDS011;2532;52.480;13.354;2023-03-01T07:11:16;26.67;;;16.03;;
5026;SDS011;2532;52.480;13.354;2023-03-01T07:13:44;26.53;;;15.97;;
5026;SDS011;2532;52.480;13.354;2023-03-01T07:16:11;26.20;;;16.17;;
5026;SDS011;2532;52.480;13.354;2023-03-01T07:18:39;30.50;;;17.63;;
5026;SDS011;2532;52.480;13.354;2023-03-01T07:21:06;22.87;;;14.63;;
5026;SDS011;2532;52.480;13.354;2023-03-01T07:23:34;34.90;;;17.80;;
5026;SDS011;2532;52.480;13.354;2023-03-01T07:26:01;24.90;;;16.30;;
5026;SDS011;2532;52.480;13.354;2023-03-01T07:28:28;26.60;;;15.83;;
5026;SDS011;2532;52.480;13.354;2023-03-01T07:31:01;32.10;;;16.50;;
5026;SDS011;2532;52.480;13.354;2023-03-01T07:33:29;27.43;;;15.40;;
5026;SDS011;2532;52.480;13.354;2023-03-01T07:35:56;31.30;;;17.00;;
5026;SDS011;2532;52.480;13.354;2023-03-01T07:38:24;31.77;;;15.87;;
5026;SDS011;2532;52.480;13.354;2023-03-01T07:40:51;27.77;;;16.50;;
5026;SDS011;2532;52.480;13.354;2023-03-01T07:43:18;31.60;;;16.20;;
5026;SDS011;2532;52.480;13.354;2023-03-01T07:45:46;26.53;;;15.70;;
5026;SDS011;2532;52.480;13.354;2023-03-01T07:48:14;28.07;;;15.90;;
5026;SDS011;2532;52.480;13.354;2023-03-01T07:50:41;27.37;;;15.40;;
5026;SDS011;2532;52.480;13.354;2023-03-01T07:53:08;30.90;;;15.40;;
5026;SDS011;2532;52.480;13.354;2023-03-01T07:55:35;26.13;;;15.97;;
5026;SDS011;2532;52.480;13.354;2023-03-01T07:58:02;27.53;;;15.67;;
5026;SDS011;2532;52.480;13.354;2023-03-01T08:00:29;27.10;;;15.57;;
5026;SDS011;2532;52.480;13.354;2023-03-01T08:02:58;27.47;;;14.67;;
5026;SDS011;2532;52.480;13.354;2023-03-01T08:05:27;26.80;;;12.77;;
5026;SDS011;2532;52.480;13.354;2023-03-01T08:07:54;21.47;;;12.53;;
5026;SDS011;2532;52.480;13.354;2023-03-01T08:10:21;20.13;;;12.57;;
5026;SDS011;2532;52.480;13.354;2023-03-01T08:12:50;30.80;;;16.57;;
5026;SDS011;2532;52.480;13.354;2023-03-01T08:15:18;21.83;;;13.67;;
5026;SDS011;2532;52.480;13.354;2023-03-01T08:17:44;21.60;;;12.87;;
5026;SDS011;2532;52.480;13.354;2023-03-01T08:20:11;21.90;;;13.50;;
5026;SDS011;2532;52.480;13.354;2023-03-01T08:22:40;31.43;;;12.80;;
5026;SDS011;2532;52.480;13.354;2023-03-01T08:25:07;20.77;;;11.30;;
5026;SDS011;2532;52.480;13.354;2023-03-01T08:27:35;14.93;;;10.77;;
5026;SDS011;2532;52.480;13.354;2023-03-01T08:30:02;16.13;;;9.53;;
5026;SDS011;2532;52.480;13.354;2023-03-01T08:32:29;17.27;;;10.90;;
5026;SDS011;2532;52.480;13.354;2023-03-01T08:34:56;20.43;;;11.13;;
5026;SDS011;2532;52.480;13.354;2023-03-01T08:37:26;22.87;;;10.90;;
5026;SDS011;2532;52.480;13.354;2023-03-01T08:39:57;16.90;;;9.83;;
5026;SDS011;2532;52.480;13.354;2023-03-01T08:42:24;17.83;;;9.90;;
5026;SDS011;2532;52.480;13.354;2023-03-01T08:44:51;16.97;;;9.27;;
5026;SDS011;2532;52.480;13.354;2023-03-01T08:47:18;14.43;;;8.07;;
5026;SDS011;2532;52.480;13.354;2023-03-01T08:49:44;11.03;;;6.83;;
5026;SDS011;2532;52.480;13.354;2023-03-01T08:52:11;13.73;;;7.67;;
5026;SDS011;2532;52.480;13.354;2023-03-01T08:54:38;14.37;;;7.90;;
5026;SDS011;2532;52.480;13.354;2023-03-01T08:57:07;16.53;;;9.10;;
5026;SDS011;2532;52.480;13.354;2023-03-01T08:59:34;15.00;;;8.70;;
5026;SDS011;2532;52.480;13.354;2023-03-01T09:02:02;13.20;;;7.57;;
5026;SDS011;2532;52.480;13.354;2023-03-01T09:04:29;22.10;;;8.17;;
5026;SDS011;2532;52.480;13.354;2023-03-01T09:06:56;11.97;;;7.97;;
5026;SDS011;2532;52.480;13.354;2023-03-01T09:09:24;11.60;;;7.60;;
5026;SDS011;2532;52.480;13.354;2023-03-01T09:11:51;11.27;;;6.77;;
5026;SDS011;2532;52.480;13.354;2023-03-01T09:14:20;10.60;;;6.57;;
5026;SDS011;2532;52.480;13.354;2023-03-01T09:16:47;13.83;;;8.60;;
5026;SDS011;2532;52.480;13.354;2023-03-01T09:19:14;16.03;;;8.27;;
5026;SDS011;2532;52.480;13.354;2023-03-01T09:21:41;15.87;;;8.20;;
5026;SDS011;2532;52.480;13.354;2023-03-01T09:24:17;17.03;;;8.20;;
5026;SDS011;2532;52.480;13.354;2023-03-01T09:26:45;10.10;;;6.37;;
5026;SDS011;2532;52.480;13.354;2023-03-01T09:29:13;11.00;;;6.37;;
5026;SDS011;2532;52.480;13.354;2023-03-01T09:31:41;8.40;;;5.97;;
5026;SDS011;2532;52.480;13.354;2023-03-01T09:34:09;15.80;;;7.50;;
5026;SDS011;2532;52.480;13.354;2023-03-01T09:36:36;12.30;;;8.10;;
5026;SDS011;2532;52.480;13.354;2023-03-01T09:39:03;9.40;;;5.87;;
5026;SDS011;2532;52.480;13.354;2023-03-01T09:41:44;9.70;;;6.33;;
5026;SDS011;2532;52.480;13.354;2023-03-01T09:44:23;13.57;;;7.73;;
5026;SDS011;2532;52.480;13.354;2023-03-01T09:46:58;9.67;;;6.70;;
5026;SDS011;2532;52.480;13.354;2023-03-01T09:49:27;11.97;;;6.53;;
5026;SDS011;2532;52.480;13.354;2023-03-01T09:51:57;12.73;;;6.23;;
5026;SDS011;2532;52.480;13.354;2023-03-01T09:54:30;14.20;;;7.50;;
5026;SDS011;2532;52.480;13.354;2023-03-01T09:57:04;10.60;;;6.40;;
5026;SDS011;2532;52.480;13.354;2023-03-01T09:59:41;12.87;;;6.17;;
5026;SDS011;2532;52.480;13.354;2023-03-01T10:02:26;12.47;;;6.87;;
5026;SDS011;2532;52.480;13.354;2023-03-01T10:04:59;11.60;;;6.50;;
5026;SDS011;2532;52.480;13.354;2023-03-01T10:07:32;10.63;;;7.03;;
5026;SDS011;2532;52.480;13.354;2023-03-01T10:10:15;10.87;;;6.30;;
5026;SDS011;2532;52.480;13.354;2023-03-01T10:12:49;11.93;;;7.03;;
5026;SDS011;2532;52.480;13.354;2023-03-01T10:15:19;9.13;;;6.27;;
5026;SDS011;2532;52.480;13.354;2023-03-01T10:18:00;11.00;;;7.10;;
5026;SDS011;2532;52.480;13.354;2023-03-01T10:20:33;14.20;;;7.10;;
5026;SDS011;2532;52.480;13.354;2023-03-01T10:23:09;15.03;;;7.40;;
5026;SDS011;2532;52.480;13.354;2023-03-01T10:25:42;12.43;;;7.73;;
5026;SDS011;2532;52.480;13.354;2023-03-01T10:28:16;13.63;;;7.53;;
5026;SDS011;2532;52.480;13.354;2023-03-01T10:30:46;16.07;;;9.07;;
5026;SDS011;2532;52.480;13.354;2023-03-01T10:33:16;14.33;;;6.97;;
5026;SDS011;2532;52.480;13.354;2023-03-01T10:35:46;11.33;;;7.93;;
5026;SDS011;2532;52.480;13.354;2023-03-01T10:38:14;19.03;;;8.47;;
5026;SDS011;2532;52.480;13.354;2023-03-01T10:40:52;13.60;;;8.10;;
5026;SDS011;2532;52.480;13.354;2023-03-01T10:43:22;17.60;;;8.83;;
5026;SDS011;2532;52.480;13.354;2023-03-01T10:45:50;12.57;;;8.50;;
5026;SDS011;2532;52.480;13.354;2023-03-01T10:48:20;16.67;;;9.33;;
5026;SDS011;2532;52.480;13.354;2023-03-01T10:50:50;13.57;;;8.40;;
5026;SDS011;2532;52.480;13.354;2023-03-01T10:53:32;14.63;;;8.50;;
5026;SDS011;2532;52.480;13.354;2023-03-01T10:56:02;14.63;;;7.83;;
5026;SDS011;2532;52.480;13.354;2023-03-01T10:58:32;14.87;;;7.87;;
5026;SDS011;2532;52.480;13.354;2023-03-01T11:01:01;15.30;;;9.80;;
5026;SDS011;2532;52.480;13.354;2023-03-01T11:03:31;12.17;;;7.97;;
5026;SDS011;2532;52.480;13.354;2023-03-01T11:06:00;16.50;;;7.70;;
5026;SDS011;2532;52.480;13.354;2023-03-01T11:08:34;14.50;;;7.93;;
5026;SDS011;2532;52.480;13.354;2023-03-01T11:11:20;11.23;;;8.57;;
5026;SDS011;2532;52.480;13.354;2023-03-01T11:13:57;15.03;;;7.30;;
5026;SDS011;2532;52.480;13.354;2023-03-01T11:16:27;13.43;;;7.57;;
5026;SDS011;2532;52.480;13.354;2023-03-01T11:19:04;10.60;;;7.50;;
5026;SDS011;2532;52.480;13.354;2023-03-01T11:21:48;14.40;;;6.70;;
5026;SDS011;2532;52.480;13.354;2023-03-01T11:24:30;10.63;;;7.57;;
5026;SDS011;2532;52.480;13.354;2023-03-01T11:27:03;12.43;;;7.07;;
5026;SDS011;2532;52.480;13.354;2023-03-01T11:29:35;16.37;;;8.27;;
5026;SDS011;2532;52.480;13.354;2023-03-01T11:32:06;11.90;;;7.10;;
5026;SDS011;2532;52.480;13.354;2023-03-01T11:34:40;11.20;;;6.97;;
5026;SDS011;2532;52.480;13.354;2023-03-01T11:37:13;11.83;;;7.27;;
5026;SDS011;2532;52.480;13.354;2023-03-01T11:39:51;11.00;;;7.17;;
5026;SDS011;2532;52.480;13.354;2023-03-01T11:42:24;11.43;;;6.80;;
5026;SDS011;2532;52.480;13.354;2023-03-01T11:45:06;12.73;;;6.43;;
5026;SDS011;2532;52.480;13.354;2023-03-01T11:47:40;7.80;;;6.60;;
5026;SDS011;2532;52.480;13.354;2023-03-01T11:50:23;12.97;;;6.90;;
5026;SDS011;2532;52.480;13.354;2023-03-01T11:53:01;21.33;;;7.97;;
5026;SDS011;2532;52.480;13.354;2023-03-01T11:55:51;14.40;;;7.33;;
5026;SDS011;2532;52.480;13.354;2023-03-01T11:58:35;7.27;;;5.27;;
5026;SDS011;2532;52.480;13.354;2023-03-01T12:01:32;6.13;;;4.67;;
5026;SDS011;2532;52.480;13.354;2023-03-01T12:04:18;9.40;;;5.50;;
5026;SDS011;2532;52.480;13.354;2023-03-01T12:07:12;11.73;;;5.97;;
5026;SDS011;2532;52.480;13.354;2023-03-01T12:09:54;15.43;;;5.90;;
5026;SDS011;2532;52.480;13.354;2023-03-01T12:12:33;7.63;;;5.53;;
5026;SDS011;2532;52.480;13.354;2023-03-01T12:15:25;7.90;;;5.00;;
5026;SDS011;2532;52.480;13.354;2023-03-01T12:18:07;8.20;;;4.53;;
5026;SDS011;2532;52.480;13.354;2023-03-01T12:20:55;12.33;;;5.13;;
5026;SDS011;2532;52.480;13.354;2023-03-01T12:23:42;6.53;;;4.33;;
5026;SDS011;2532;52.480;13.354;2023-03-01T12:26:28;6.03;;;4.40;;
5026;SDS011;2532;52.480;13.354;2023-03-01T12:29:02;11.30;;;5.60;;
5026;SDS011;2532;52.480;13.354;2023-03-01T12:34:39;9.47;;;5.37;;
5026;SDS011;2532;52.480;13.354;2023-03-01T12:37:29;8.23;;;4.70;;
5026;SDS011;2532;52.480;13.354;2023-03-01T12:40:18;8.80;;;5.03;;
5026;SDS011;2532;52.480;13.354;2023-03-01T12:43:07;7.63;;;4.43;;
5026;SDS011;2532;52.480;13.354;2023-03-01T12:45:47;10.23;;;5.33;;
5026;SDS011;2532;52.480;13.354;2023-03-01T12:48:29;7.63;;;5.60;;
5026;SDS011;2532;52.480;13.354;2023-03-01T12:51:07;10.27;;;5.63;;
5026;SDS011;2532;52.480;13.354;2023-03-01T12:53:39;7.30;;;5.00;;
5026;SDS011;2532;52.480;13.354;2023-03-01T12:56:09;6.87;;;5.00;;
5026;SDS011;2532;52.480;13.354;2023-03-01T12:58:39;11.70;;;6.60;;
5026;SDS011;2532;52.480;13.354;2023-03-01T13:01:18;7.20;;;5.00;;
5026;SDS011;2532;52.480;13.354;2023-03-01T13:03:57;6.73;;;5.93;;
5026;SDS011;2532;52.480;13.354;2023-03-01T13:06:44;10.17;;;7.37;;
5026;SDS011;2532;52.480;13.354;2023-03-01T13:09:22;11.73;;;5.20;;
5026;SDS011;2532;52.480;13.354;2023-03-01T13:11:57;6.60;;;5.17;;
5026;SDS011;2532;52.480;13.354;2023-03-01T13:14:34;15.67;;;5.30;;
5026;SDS011;2532;52.480;13.354;2023-03-01T13:17:30;9.53;;;5.40;;
5026;SDS011;2532;52.480;13.354;2023-03-01T13:19:58;8.03;;;5.40;;
5026;SDS011;2532;52.480;13.354;2023-03-01T13:22:27;14.13;;;6.50;;
5026;SDS011;2532;52.480;13.354;2023-03-01T13:25:10;10.13;;;5.97;;
5026;SDS011;2532;52.480;13.354;2023-03-01T13:27:41;7.80;;;4.87;;
5026;SDS011;2532;52.480;13.354;2023-03-01T13:36:05;9.90;;;6.07;;
5026;SDS011;2532;52.480;13.354;2023-03-01T13:38:36;7.17;;;4.73;;
5026;SDS011;2532;52.480;13.354;2023-03-01T13:41:06;7.70;;;4.30;;
5026;SDS011;2532;52.480;13.354;2023-03-01T13:43:36;9.80;;;6.63;;
5026;SDS011;2532;52.480;13.354;2023-03-01T13:46:07;13.27;;;5.23;;
5026;SDS011;2532;52.480;13.354;2023-03-01T13:48:37;8.90;;;5.20;;
5026;SDS011;2532;52.480;13.354;2023-03-01T13:51:07;11.70;;;7.90;;
5026;SDS011;2532;52.480;13.354;2023-03-01T13:53:38;6.87;;;5.23;;
5026;SDS011;2532;52.480;13.354;2023-03-01T13:56:11;10.50;;;5.53;;
5026;SDS011;2532;52.480;13.354;2023-03-01T13:58:51;6.23;;;4.30;;
5026;SDS011;2532;52.480;13.354;2023-03-01T14:01:27;12.10;;;5.63;;
5026;SDS011;2532;52.480;13.354;2023-03-01T14:03:55;8.77;;;5.57;;
5026;SDS011;2532;52.480;13.354;2023-03-01T14:06:24;7.50;;;5.20;;
5026;SDS011;2532;52.480;13.354;2023-03-01T14:09:00;8.80;;;5.20;;
5026;SDS011;2532;52.480;13.354;2023-03-01T14:11:56;6.70;;;5.13;;
5026;SDS011;2532;52.480;13.354;2023-03-01T14:14:44;6.83;;;5.00;;
5026;SDS011;2532;52.480;13.354;2023-03-01T14:20:18;9.03;;;5.50;;
5026;SDS011;2532;52.480;13.354;2023-03-01T14:22:47;7.10;;;4.70;;
5026;SDS011;2532;52.480;13.354;2023-03-01T14:25:23;7.83;;;5.23;;
5026;SDS011;2532;52.480;13.354;2023-03-01T14:27:56;6.20;;;4.83;;
5026;SDS011;2532;52.480;13.354;2023-03-01T14:30:27;7.10;;;4.63;;
5026;SDS011;2532;52.480;13.354;2023-03-01T14:32:59;6.97;;;3.80;;
5026;SDS011;2532;52.480;13.354;2023-03-01T14:35:29;5.60;;;3.97;;
5026;SDS011;2532;52.480;13.354;2023-03-01T14:37:58;14.53;;;4.23;;
5026;SDS011;2532;52.480;13.354;2023-03-01T14:40:32;5.60;;;4.33;;
5026;SDS011;2532;52.480;13.354;2023-03-01T14:43:01;8.60;;;4.63;;
5026;SDS011;2532;52.480;13.354;2023-03-01T14:45:38;6.37;;;4.20;;
5026;SDS011;2532;52.480;13.354;2023-03-01T14:48:05;6.80;;;4.50;;
5026;SDS011;2532;52.480;13.354;2023-03-01T14:50:34;6.50;;;4.37;;
5026;SDS011;2532;52.480;13.354;2023-03-01T14:53:06;10.47;;;5.20;;
5026;SDS011;2532;52.480;13.354;2023-03-01T14:55:42;7.37;;;4.77;;
5026;SDS011;2532;52.480;13.354;2023-03-01T14:58:13;6.33;;;4.60;;
5026;SDS011;2532;52.480;13.354;2023-03-01T15:00:46;8.50;;;4.57;;
5026;SDS011;2532;52.480;13.354;2023-03-01T15:03:17;8.40;;;4.07;;
5026;SDS011;2532;52.480;13.354;2023-03-01T15:05:50;7.50;;;4.87;;
5026;SDS011;2532;52.480;13.354;2023-03-01T15:08:19;8.83;;;4.80;;
5026;SDS011;2532;52.480;13.354;2023-03-01T15:10:59;10.63;;;4.80;;
5026;SDS011;2532;52.480;13.354;2023-03-01T15:13:29;8.30;;;5.10;;
5026;SDS011;2532;52.480;13.354;2023-03-01T15:16:03;7.37;;;4.63;;
5026;SDS011;2532;52.480;13.354;2023-03-01T15:18:32;6.17;;;4.63;;
5026;SDS011;2532;52.480;13.354;2023-03-01T15:21:08;6.70;;;4.73;;